sensor_id;sensor_type;location;lat;lon;timestamp;pressure;altitude;pressure_sealevel;temperature;humidity
72438;BME280;60444;43.534;-5.674;2024-03-08T00:00:42;99983.47;;;11.93;100.00
72438;BME280;60444;43.534;-5.674;2024-03-08T00:03:08;99957.09;;;11.83;100.00
72438;BME280;60444;43.534;-5.674;2024-03-08T00:05:36;99981.19;;;11.87;100.00
72438;BME280;60444;43.534;-5.674;2024-03-08T00:08:01;99982.13;;;12.00;100.00
72438;BME280;60444;43.534;-5.674;2024-03-08T00:10:27;99986.25;;;12.06;100.00
72438;BME280;60444;43.534;-5.674;2024-03-08T00:12:54;99976.88;;;11.97;100.00
72438;BME280;60444;43.534;-5.674;2024-03-08T00:15:20;99972.88;;;12.03;100.00
72438;BME280;60444;43.534;-5.674;2024-03-08T00:17:48;99967.28;;;12.06;100.00
72438;BME280;60444;43.534;-5.674;2024-03-08T00:20:17;99968.88;;;12.08;100.00
72438;BME280;60444;43.534;-5.674;2024-03-08T00:22:45;99943.69;;;11.94;100.00
72438;BME280;60444;43.534;-5.674;2024-03-08T00:25:11;99957.28;;;12.06;100.00
72438;BME280;60444;43.534;-5.674;2024-03-08T00:27:40;99951.97;;;12.05;100.00
72438;BME280;60444;43.534;-5.674;2024-03-08T00:30:09;99919.66;;;11.89;100.00
72438;BME280;60444;43.534;-5.674;2024-03-08T00:32:34;99942.19;;;12.02;100.00
72438;BME280;60444;43.534;-5.674;2024-03-08T00:35:01;99935.41;;;12.09;100.00
72438;BME280;60444;43.534;-5.674;2024-03-08T00:37:26;99905.66;;;11.95;100.00
72438;BME280;60444;43.534;-5.674;2024-03-08T00:39:52;99922.81;;;12.08;100.00
72438;BME280;60444;43.534;-5.674;2024-03-08T00:42:19;99932.03;;;12.06;100.00
72438;BME280;60444;43.534;-5.674;2024-03-08T00:44:44;99921.94;;;12.08;100.00
72438;BME280;60444;43.534;-5.674;2024-03-08T00:47:10;99922.03;;;12.06;100.00
72438;BME280;60444;43.534;-5.674;2024-03-08T00:49:38;99911.19;;;11.94;100.00
72438;BME280;60444;43.534;-5.674;2024-03-08T00:52:04;99915.09;;;12.02;100.00
72438;BME280;60444;43.534;-5.674;2024-03-08T00:54:33;99916.44;;;12.09;100.00
72438;BME280;60444;43.534;-5.674;2024-03-08T00:56:59;99899.72;;;12.03;100.00
72438;BME280;60444;43.534;-5.674;2024-03-08T00:59:31;99902.88;;;12.09;100.00
72438;BME280;60444;43.534;-5.674;2024-03-08T01:02:00;99897.22;;;12.12;100.00
72438;BME280;60444;43.534;-5.674;2024-03-08T01:04:25;99911.09;;;12.20;100.00
72438;BME280;60444;43.534;-5.674;2024-03-08T01:06:54;99871.66;;;12.04;100.00
72438;BME280;60444;43.534;-5.674;2024-03-08T01:09:22;99880.75;;;12.15;100.00
72438;BME280;60444;43.534;-5.674;2024-03-08T01:11:48;99874.13;;;12.19;100.00
72438;BME280;60444;43.534;-5.674;2024-03-08T01:14:14;99866.53;;;12.24;100.00
72438;BME280;60444;43.534;-5.674;2024-03-08T01:16:40;99863.28;;;12.19;100.00
72438;BME280;60444;43.534;-5.674;2024-03-08T01:19:06;99882.03;;;12.35;100.00
72438;BME280;60444;43.534;-5.674;2024-03-08T01:21:32;99887.16;;;12.39;100.00
72438;BME280;60444;43.534;-5.674;2024-03-08T01:23:57;99858.28;;;12.26;100.00
72438;BME280;60444;43.534;-5.674;2024-03-08T01:26:23;99865.34;;;12.28;100.00
72438;BME280;60444;43.534;-5.674;2024-03-08T01:28:49;99849.63;;;12.21;100.00
72438;BME280;60444;43.534;-5.674;2024-03-08T01:31:15;99876.94;;;12.43;100.00
72438;BME280;60444;43.534;-5.674;2024-03-08T01:33:41;99872.72;;;12.39;100.00
72438;BME280;60444;43.534;-5.674;2024-03-08T01:36:07;99868.94;;;12.41;100.00
72438;BME280;60444;43.534;-5.674;2024-03-08T01:38:33;99852.22;;;12.35;100.00
72438;BME280;60444;43.534;-5.674;2024-03-08T01:40:59;99848.84;;;12.31;100.00
72438;BME280;60444;43.534;-5.674;2024-03-08T01:43:26;99841.19;;;12.25;100.00
72438;BME280;60444;43.534;-5.674;2024-03-08T01:45:54;99838.47;;;12.25;100.00
72438;BME280;60444;43.534;-5.674;2024-03-08T01:48:20;99854.06;;;12.34;100.00
72438;BME280;60444;43.534;-5.674;2024-03-08T01:50:50;99847.34;;;12.27;100.00
72438;BME280;60444;43.534;-5.674;2024-03-08T01:53:17;99852.13;;;12.36;100.00
72438;BME280;60444;43.534;-5.674;2024-03-08T01:55:45;99833.03;;;12.25;100.00
72438;BME280;60444;43.534;-5.674;2024-03-08T01:58:12;99844.53;;;12.29;100.00
72438;BME280;60444;43.534;-5.674;2024-03-08T02:00:42;99834.34;;;12.20;100.00
72438;BME280;60444;43.534;-5.674;2024-03-08T02:03:09;99848.31;;;12.26;100.00
72438;BME280;60444;43.534;-5.674;2024-03-08T02:05:36;99844.66;;;12.27;100.00
72438;BME280;60444;43.534;-5.674;2024-03-08T02:08:04;99831.75;;;12.18;100.00
72438;BME280;60444;43.534;-5.674;2024-03-08T02:10:33;99857.88;;;12.32;100.00
72438;BME280;60444;43.534;-5.674;2024-03-08T02:12:59;99824.47;;;12.19;100.00
72438;BME280;60444;43.534;-5.674;2024-03-08T02:15:26;99829.56;;;12.23;100.00
72438;BME280;60444;43.534;-5.674;2024-03-08T02:17:52;99838.25;;;12.28;100.00
72438;BME280;60444;43.534;-5.674;2024-03-08T02:20:18;99840.84;;;12.30;100.00
72438;BME280;60444;43.534;-5.674;2024-03-08T02:22:45;99840.41;;;12.36;100.00
72438;BME280;60444;43.534;-5.674;2024-03-08T02:25:11;99814.59;;;12.18;100.00
72438;BME280;60444;43.534;-5.674;2024-03-08T02:27:37;99839.75;;;12.32;100.00
72438;BME280;60444;43.534;-5.674;2024-03-08T02:30:03;99819.50;;;12.25;100.00
72438;BME280;60444;43.534;-5.674;2024-03-08T02:32:30;99829.03;;;12.31;100.00
72438;BME280;60444;43.534;-5.674;2024-03-08T02:34:58;99793.47;;;12.10;100.00
72438;BME280;60444;43.534;-5.674;2024-03-08T02:37:25;99798.66;;;12.13;100.00
72438;BME280;60444;43.534;-5.674;2024-03-08T02:39:50;99798.97;;;12.21;100.00
72438;BME280;60444;43.534;-5.674;2024-03-08T02:42:16;99802.88;;;12.30;100.00
72438;BME280;60444;43.534;-5.674;2024-03-08T02:44:44;99788.69;;;12.14;100.00
72438;BME280;60444;43.534;-5.674;2024-03-08T02:47:10;99772.78;;;12.09;100.00
72438;BME280;60444;43.534;-5.674;2024-03-08T02:49:36;99794.31;;;12.23;100.00
72438;BME280;60444;43.534;-5.674;2024-03-08T02:52:04;99784.13;;;12.14;100.00
72438;BME280;60444;43.534;-5.674;2024-03-08T02:54:30;99776.97;;;12.13;100.00
72438;BME280;60444;43.534;-5.674;2024-03-08T02:56:55;99776.00;;;12.14;100.00
72438;BME280;60444;43.534;-5.674;2024-03-08T02:59:21;99768.19;;;12.10;100.00
72438;BME280;60444;43.534;-5.674;2024-03-08T03:01:47;99767.88;;;12.14;100.00
72438;BME280;60444;43.534;-5.674;2024-03-08T03:04:12;99772.66;;;12.11;100.00
72438;BME280;60444;43.534;-5.674;2024-03-08T03:06:38;99789.34;;;12.17;100.00
72438;BME280;60444;43.534;-5.674;2024-03-08T03:09:04;99780.75;;;12.23;100.00
72438;BME280;60444;43.534;-5.674;2024-03-08T03:11:31;99761.69;;;12.12;100.00
72438;BME280;60444;43.534;-5.674;2024-03-08T03:13:57;99765.38;;;12.11;100.00
72438;BME280;60444;43.534;-5.674;2024-03-08T03:16:23;99762.56;;;12.13;100.00
72438;BME280;60444;43.534;-5.674;2024-03-08T03:18:49;99765.16;;;12.14;100.00
72438;BME280;60444;43.534;-5.674;2024-03-08T03:21:15;99760.69;;;12.13;100.00
72438;BME280;60444;43.534;-5.674;2024-03-08T03:23:40;99754.53;;;12.11;100.00
72438;BME280;60444;43.534;-5.674;2024-03-08T03:26:10;99768.84;;;12.13;100.00
72438;BME280;60444;43.534;-5.674;2024-03-08T03:28:39;99771.13;;;12.19;100.00
72438;BME280;60444;43.534;-5.674;2024-03-08T03:31:08;99770.34;;;12.17;100.00
72438;BME280;60444;43.534;-5.674;2024-03-08T03:33:39;99744.16;;;12.05;100.00
72438;BME280;60444;43.534;-5.674;2024-03-08T03:36:05;99768.84;;;12.13;100.00
72438;BME280;60444;43.534;-5.674;2024-03-08T03:38:31;99760.81;;;12.12;100.00
72438;BME280;60444;43.534;-5.674;2024-03-08T03:40:57;99724.19;;;11.94;100.00
72438;BME280;60444;43.534;-5.674;2024-03-08T03:43:30;99725.38;;;11.90;100.00
72438;BME280;60444;43.534;-5.674;2024-03-08T03:45:56;99749.75;;;12.02;100.00
72438;BME280;60444;43.534;-5.674;2024-03-08T03:48:22;99720.31;;;11.85;100.00
72438;BME280;60444;43.534;-5.674;2024-03-08T03:50:47;99733.50;;;11.90;100.00
72438;BME280;60444;43.534;-5.674;2024-03-08T03:53:13;99727.91;;;11.93;100.00
72438;BME280;60444;43.534;-5.674;2024-03-08T03:55:38;99720.09;;;11.88;100.00
72438;BME280;60444;43.534;-5.674;2024-03-08T03:58:04;99729.97;;;11.89;100.00
72438;BME280;60444;43.534;-5.674;2024-03-08T04:00:29;99707.72;;;11.72;100.00
72438;BME280;60444;43.534;-5.674;2024-03-08T04:02:55;99712.09;;;11.74;100.00
72438;BME280;60444;43.534;-5.674;2024-03-08T04:05:24;99732.09;;;11.84;100.00
72438;BME280;60444;43.534;-5.674;2024-03-08T04:07:49;99708.59;;;11.72;100.00
72438;BME280;60444;43.534;-5.674;2024-03-08T04:10:15;99736.81;;;11.82;100.00
72438;BME280;60444;43.534;-5.674;2024-03-08T04:12:41;99730.09;;;11.75;100.00
72438;BME280;60444;43.534;-5.674;2024-03-08T04:15:07;99681.72;;;11.44;100.00
72438;BME280;60444;43.534;-5.674;2024-03-08T04:17:33;99740.16;;;11.73;100.00
72438;BME280;60444;43.534;-5.674;2024-03-08T04:20:05;99732.84;;;11.61;100.00
72438;BME280;60444;43.534;-5.674;2024-03-08T04:22:36;99733.38;;;11.53;100.00
72438;BME280;60444;43.534;-5.674;2024-03-08T04:25:02;99731.13;;;11.60;100.00
72438;BME280;60444;43.534;-5.674;2024-03-08T04:27:28;99710.97;;;11.39;100.00
72438;BME280;60444;43.534;-5.674;2024-03-08T04:29:53;99713.75;;;11.37;100.00
72438;BME280;60444;43.534;-5.674;2024-03-08T04:32:19;99728.66;;;11.57;100.00
72438;BME280;60444;43.534;-5.674;2024-03-08T04:34:44;99711.19;;;11.48;100.00
72438;BME280;60444;43.534;-5.674;2024-03-08T04:37:10;99723.22;;;11.57;100.00
72438;BME280;60444;43.534;-5.674;2024-03-08T04:39:39;99723.53;;;11.52;100.00
72438;BME280;60444;43.534;-5.674;2024-03-08T04:42:05;99733.38;;;11.53;100.00
72438;BME280;60444;43.534;-5.674;2024-03-08T04:44:39;99704.16;;;11.46;100.00
72438;BME280;60444;43.534;-5.674;2024-03-08T04:47:04;99726.00;;;11.43;100.00
72438;BME280;60444;43.534;-5.674;2024-03-08T04:49:34;99693.63;;;11.29;100.00
72438;BME280;60444;43.534;-5.674;2024-03-08T04:52:03;99694.03;;;11.35;100.00
72438;BME280;60444;43.534;-5.674;2024-03-08T04:54:32;99698.63;;;11.35;100.00
72438;BME280;60444;43.534;-5.674;2024-03-08T04:56:58;99700.16;;;11.39;100.00
72438;BME280;60444;43.534;-5.674;2024-03-08T04:59:26;99698.16;;;11.41;100.00
72438;BME280;60444;43.534;-5.674;2024-03-08T05:01:52;99721.59;;;11.55;100.00
72438;BME280;60444;43.534;-5.674;2024-03-08T05:04:18;99722.53;;;11.53;100.00
72438;BME280;60444;43.534;-5.674;2024-03-08T05:06:43;99701.09;;;11.38;100.00
72438;BME280;60444;43.534;-5.674;2024-03-08T05:09:09;99708.03;;;11.42;100.00
72438;BME280;60444;43.534;-5.674;2024-03-08T05:11:44;99720.19;;;11.49;100.00
72438;BME280;60444;43.534;-5.674;2024-03-08T05:14:10;99708.34;;;11.37;100.00
72438;BME280;60444;43.534;-5.674;2024-03-08T05:16:36;99710.00;;;11.40;100.00
72438;BME280;60444;43.534;-5.674;2024-03-08T05:19:02;99723.19;;;11.44;100.00
72438;BME280;60444;43.534;-5.674;2024-03-08T05:21:28;99720.47;;;11.44;100.00
72438;BME280;60444;43.534;-5.674;2024-03-08T05:23:56;99691.91;;;11.28;100.00
72438;BME280;60444;43.534;-5.674;2024-03-08T05:26:22;99729.47;;;11.45;100.00
72438;BME280;60444;43.534;-5.674;2024-03-08T05:28:50;99718.22;;;11.38;100.00
72438;BME280;60444;43.534;-5.674;2024-03-08T05:31:21;99711.63;;;11.30;100.00
72438;BME280;60444;43.534;-5.674;2024-03-08T05:33:48;99703.78;;;11.25;100.00
72438;BME280;60444;43.534;-5.674;2024-03-08T05:36:14;99696.84;;;11.21;100.00
72438;BME280;60444;43.534;-5.674;2024-03-08T05:38:42;99693.38;;;11.19;100.00
72438;BME280;60444;43.534;-5.674;2024-03-08T05:41:09;99720.47;;;11.32;100.00
72438;BME280;60444;43.534;-5.674;2024-03-08T05:43:35;99719.09;;;11.26;100.00
72438;BME280;60444;43.534;-5.674;2024-03-08T05:46:01;99720.81;;;11.27;100.00
72438;BME280;60444;43.534;-5.674;2024-03-08T05:48:26;99721.03;;;11.24;100.00
72438;BME280;60444;43.534;-5.674;2024-03-08T05:50:53;99724.50;;;11.26;100.00
72438;BME280;60444;43.534;-5.674;2024-03-08T05:53:18;99719.38;;;11.22;100.00
72438;BME280;60444;43.534;-5.674;2024-03-08T05:55:44;99700.31;;;11.11;100.00
72438;BME280;60444;43.534;-5.674;2024-03-08T05:58:10;99697.50;;;11.12;100.00
72438;BME280;60444;43.534;-5.674;2024-03-08T06:00:36;99699.34;;;11.12;100.00
72438;BME280;60444;43.534;-5.674;2024-03-08T06:03:02;99694.47;;;11.04;100.00
72438;BME280;60444;43.534;-5.674;2024-03-08T06:05:30;99704.84;;;11.10;100.00
72438;BME280;60444;43.534;-5.674;2024-03-08T06:07:55;99705.59;;;11.12;100.00
72438;BME280;60444;43.534;-5.674;2024-03-08T06:10:21;99685.47;;;11.04;100.00
72438;BME280;60444;43.534;-5.674;2024-03-08T06:12:47;99714.81;;;11.10;100.00
72438;BME280;60444;43.534;-5.674;2024-03-08T06:15:12;99717.00;;;11.17;100.00
72438;BME280;60444;43.534;-5.674;2024-03-08T06:17:40;99712.56;;;11.16;100.00
72438;BME280;60444;43.534;-5.674;2024-03-08T06:20:07;99717.97;;;11.16;100.00
72438;BME280;60444;43.534;-5.674;2024-03-08T06:22:37;99713.06;;;11.09;100.00
72438;BME280;60444;43.534;-5.674;2024-03-08T06:25:06;99707.88;;;11.06;100.00
72438;BME280;60444;43.534;-5.674;2024-03-08T06:27:32;99691.41;;;10.96;100.00
72438;BME280;60444;43.534;-5.674;2024-03-08T06:30:02;99716.53;;;11.11;100.00
72438;BME280;60444;43.534;-5.674;2024-03-08T06:32:30;99694.88;;;10.98;100.00
72438;BME280;60444;43.534;-5.674;2024-03-08T06:34:56;99696.72;;;10.98;100.00
72438;BME280;60444;43.534;-5.674;2024-03-08T06:37:22;99704.84;;;11.10;100.00
72438;BME280;60444;43.534;-5.674;2024-03-08T06:39:49;99704.31;;;11.05;100.00
72438;BME280;60444;43.534;-5.674;2024-03-08T06:42:16;99717.53;;;11.10;100.00
72438;BME280;60444;43.534;-5.674;2024-03-08T06:44:42;99691.41;;;10.96;100.00
72438;BME280;60444;43.534;-5.674;2024-03-08T06:47:14;99683.91;;;10.87;100.00
72438;BME280;60444;43.534;-5.674;2024-03-08T06:49:44;99717.63;;;10.69;100.00
72438;BME280;60444;43.534;-5.674;2024-03-08T06:52:10;99696.22;;;10.79;100.00
72438;BME280;60444;43.534;-5.674;2024-03-08T06:54:36;99683.69;;;10.78;100.00
72438;BME280;60444;43.534;-5.674;2024-03-08T06:57:05;99693.31;;;10.82;100.00
72438;BME280;60444;43.534;-5.674;2024-03-08T06:59:32;99707.81;;;10.81;100.00
72438;BME280;60444;43.534;-5.674;2024-03-08T07:01:57;99686.59;;;10.75;100.00
72438;BME280;60444;43.534;-5.674;2024-03-08T07:04:25;99704.69;;;10.87;100.00
72438;BME280;60444;43.534;-5.674;2024-03-08T07:06:57;99684.34;;;10.81;100.00
72438;BME280;60444;43.534;-5.674;2024-03-08T07:09:23;99701.78;;;10.90;100.00
72438;BME280;60444;43.534;-5.674;2024-03-08T07:11:50;99715.22;;;10.91;100.00
72438;BME280;60444;43.534;-5.674;2024-03-08T07:14:23;99679.75;;;10.69;100.00
72438;BME280;60444;43.534;-5.674;2024-03-08T07:16:49;99709.34;;;10.85;100.00
72438;BME280;60444;43.534;-5.674;2024-03-08T07:19:15;99701.03;;;10.88;100.00
72438;BME280;60444;43.534;-5.674;2024-03-08T07:21:45;99697.44;;;10.87;100.00
72438;BME280;60444;43.534;-5.674;2024-03-08T07:24:11;99714.22;;;10.92;100.00
72438;BME280;60444;43.534;-5.674;2024-03-08T07:26:43;99687.44;;;10.63;100.00
72438;BME280;60444;43.534;-5.674;2024-03-08T07:29:08;99711.88;;;10.61;100.00
72438;BME280;60444;43.534;-5.674;2024-03-08T07:31:34;99710.63;;;10.79;100.00
72438;BME280;60444;43.534;-5.674;2024-03-08T07:34:03;99685.06;;;10.71;100.00
72438;BME280;60444;43.534;-5.674;2024-03-08T07:36:28;99696.66;;;10.85;100.00
72438;BME280;60444;43.534;-5.674;2024-03-08T07:38:54;99689.84;;;10.80;100.00
72438;BME280;60444;43.534;-5.674;2024-03-08T07:41:20;99707.09;;;10.91;100.00
72438;BME280;60444;43.534;-5.674;2024-03-08T07:43:45;99702.22;;;10.96;100.00
72438;BME280;60444;43.534;-5.674;2024-03-08T07:46:11;99700.19;;;11.00;100.00
72438;BME280;60444;43.534;-5.674;2024-03-08T07:48:38;99675.69;;;10.89;100.00
72438;BME280;60444;43.534;-5.674;2024-03-08T07:51:05;99705.28;;;11.04;100.00
72438;BME280;60444;43.534;-5.674;2024-03-08T07:53:31;99683.94;;;11.00;100.00
72438;BME280;60444;43.534;-5.674;2024-03-08T07:55:56;99687.75;;;11.10;100.00
72438;BME280;60444;43.534;-5.674;2024-03-08T07:58:22;99692.09;;;11.12;100.00
72438;BME280;60444;43.534;-5.674;2024-03-08T08:00:49;99690.47;;;11.10;100.00
72438;BME280;60444;43.534;-5.674;2024-03-08T08:03:15;99694.47;;;11.17;100.00
72438;BME280;60444;43.534;-5.674;2024-03-08T08:05:41;99676.81;;;11.11;100.00
72438;BME280;60444;43.534;-5.674;2024-03-08T08:08:10;99702.72;;;11.28;100.00
72438;BME280;60444;43.534;-5.674;2024-03-08T08:10:36;99688.97;;;11.18;100.00
72438;BME280;60444;43.534;-5.674;2024-03-08T08:13:02;99706.75;;;11.35;100.00
72438;BME280;60444;43.534;-5.674;2024-03-08T08:15:29;99687.34;;;11.28;100.00
72438;BME280;60444;43.534;-5.674;2024-03-08T08:17:55;99667.09;;;11.21;100.00
72438;BME280;60444;43.534;-5.674;2024-03-08T08:20:21;99701.53;;;11.44;100.00
72438;BME280;60444;43.534;-5.674;2024-03-08T08:22:47;99685.41;;;11.43;100.00
72438;BME280;60444;43.534;-5.674;2024-03-08T08:25:13;99662.56;;;11.34;100.00
72438;BME280;60444;43.534;-5.674;2024-03-08T08:27:41;99674.44;;;11.44;100.00
72438;BME280;60444;43.534;-5.674;2024-03-08T08:30:08;99702.53;;;11.56;100.00
72438;BME280;60444;43.534;-5.674;2024-03-08T08:32:38;99696.78;;;11.61;100.00
72438;BME280;60444;43.534;-5.674;2024-03-08T08:35:08;99689.31;;;11.64;100.00
72438;BME280;60444;43.534;-5.674;2024-03-08T08:37:40;99690.09;;;11.66;100.00
72438;BME280;60444;43.534;-5.674;2024-03-08T08:40:07;99692.59;;;11.69;100.00
72438;BME280;60444;43.534;-5.674;2024-03-08T08:42:39;99680.56;;;11.73;100.00
72438;BME280;60444;43.534;-5.674;2024-03-08T08:45:06;99668.09;;;11.71;100.00
72438;BME280;60444;43.534;-5.674;2024-03-08T08:47:37;99645.88;;;11.78;100.00
72438;BME280;60444;43.534;-5.674;2024-03-08T08:50:04;99658.19;;;11.95;100.00
72438;BME280;60444;43.534;-5.674;2024-03-08T08:52:31;99646.25;;;11.97;100.00
72438;BME280;60444;43.534;-5.674;2024-03-08T08:55:03;99645.81;;;12.03;100.00
72438;BME280;60444;43.534;-5.674;2024-03-08T08:57:29;99625.34;;;11.99;100.00
72438;BME280;60444;43.534;-5.674;2024-03-08T08:59:58;99658.25;;;12.18;100.00
72438;BME280;60444;43.534;-5.674;2024-03-08T09:02:24;99633.41;;;12.12;100.00
72438;BME280;60444;43.534;-5.674;2024-03-08T09:04:51;99647.03;;;12.23;100.00
72438;BME280;60444;43.534;-5.674;2024-03-08T09:07:16;99637.59;;;12.28;100.00
72438;BME280;60444;43.534;-5.674;2024-03-08T09:09:47;99605.22;;;12.14;100.00
72438;BME280;60444;43.534;-5.674;2024-03-08T09:12:12;99636.53;;;12.42;100.00
72438;BME280;60444;43.534;-5.674;2024-03-08T09:14:39;99636.22;;;12.46;100.00
72438;BME280;60444;43.534;-5.674;2024-03-08T09:17:08;99633.81;;;12.55;100.00
72438;BME280;60444;43.534;-5.674;2024-03-08T09:19:35;99608.84;;;12.49;100.00
72438;BME280;60444;43.534;-5.674;2024-03-08T09:22:00;99633.13;;;12.75;100.00
72438;BME280;60444;43.534;-5.674;2024-03-08T09:24:26;99612.88;;;12.68;100.00
72438;BME280;60444;43.534;-5.674;2024-03-08T09:26:51;99623.50;;;12.71;100.00
72438;BME280;60444;43.534;-5.674;2024-03-08T09:29:17;99623.50;;;12.71;100.00
72438;BME280;60444;43.534;-5.674;2024-03-08T09:31:43;99625.59;;;12.78;100.00
72438;BME280;60444;43.534;-5.674;2024-03-08T09:34:10;99609.56;;;12.75;100.00
72438;BME280;60444;43.534;-5.674;2024-03-08T09:36:35;99628.38;;;12.89;100.00
72438;BME280;60444;43.534;-5.674;2024-03-08T09:39:01;99599.97;;;12.82;96.87
72438;BME280;60444;43.534;-5.674;2024-03-08T09:41:26;99625.19;;;12.95;96.16
72438;BME280;60444;43.534;-5.674;2024-03-08T09:43:52;99593.09;;;12.89;100.00
72438;BME280;60444;43.534;-5.674;2024-03-08T09:46:21;99604.09;;;12.99;97.17
72438;BME280;60444;43.534;-5.674;2024-03-08T09:48:48;99601.78;;;13.05;95.88
72438;BME280;60444;43.534;-5.674;2024-03-08T09:51:13;99602.31;;;13.10;96.49
72438;BME280;60444;43.534;-5.674;2024-03-08T09:53:42;99600.22;;;13.14;97.80
72438;BME280;60444;43.534;-5.674;2024-03-08T09:56:08;99600.44;;;13.11;96.93
72438;BME280;60444;43.534;-5.674;2024-03-08T09:58:33;99609.75;;;13.19;98.90
72438;BME280;60444;43.534;-5.674;2024-03-08T10:00:59;99594.53;;;13.17;98.10
72438;BME280;60444;43.534;-5.674;2024-03-08T10:03:30;99605.91;;;13.22;100.00
72438;BME280;60444;43.534;-5.674;2024-03-08T10:05:58;99609.63;;;13.21;100.00
72438;BME280;60444;43.534;-5.674;2024-03-08T10:08:30;99608.88;;;13.19;90.91
72438;BME280;60444;43.534;-5.674;2024-03-08T10:10:56;99603.19;;;13.22;100.00
72438;BME280;60444;43.534;-5.674;2024-03-08T10:13:24;99614.44;;;13.28;96.50
72438;BME280;60444;43.534;-5.674;2024-03-08T10:15:50;99595.31;;;13.30;100.00
72438;BME280;60444;43.534;-5.674;2024-03-08T10:18:16;99601.38;;;13.44;95.72
72438;BME280;60444;43.534;-5.674;2024-03-08T10:20:42;99598.75;;;13.54;96.65
72438;BME280;60444;43.534;-5.674;2024-03-08T10:23:08;99595.19;;;13.53;90.43
72438;BME280;60444;43.534;-5.674;2024-03-08T10:25:35;99608.66;;;13.66;91.34
72438;BME280;60444;43.534;-5.674;2024-03-08T10:28:04;99611.25;;;13.68;93.56
72438;BME280;60444;43.534;-5.674;2024-03-08T10:30:30;99600.50;;;13.66;97.86
72438;BME280;60444;43.534;-5.674;2024-03-08T10:32:56;99598.88;;;13.64;91.25
72438;BME280;60444;43.534;-5.674;2024-03-08T10:35:22;99617.31;;;13.71;91.91
72438;BME280;60444;43.534;-5.674;2024-03-08T10:37:49;99611.88;;;13.71;91.04
72438;BME280;60444;43.534;-5.674;2024-03-08T10:40:24;99612.34;;;13.65;89.70
72438;BME280;60444;43.534;-5.674;2024-03-08T10:42:58;99626.06;;;13.64;90.71
72438;BME280;60444;43.534;-5.674;2024-03-08T10:45:36;99632.13;;;13.67;100.00
72438;BME280;60444;43.534;-5.674;2024-03-08T10:48:29;99623.97;;;13.56;100.00
72438;BME280;60444;43.534;-5.674;2024-03-08T10:51:05;99614.81;;;13.46;100.00
72438;BME280;60444;43.534;-5.674;2024-03-08T10:53:33;99632.97;;;13.45;97.27
72438;BME280;60444;43.534;-5.674;2024-03-08T10:55:59;99643.97;;;13.44;96.03
72438;BME280;60444;43.534;-5.674;2024-03-08T10:58:26;99661.09;;;13.33;100.00
72438;BME280;60444;43.534;-5.674;2024-03-08T11:00:55;99654.31;;;13.28;100.00
72438;BME280;60444;43.534;-5.674;2024-03-08T11:06:07;99649.63;;;12.95;100.00
72438;BME280;60444;43.534;-5.674;2024-03-08T11:08:36;99685.16;;;12.92;100.00
72438;BME280;60444;43.534;-5.674;2024-03-08T11:11:02;99698.94;;;12.89;100.00
72438;BME280;60444;43.534;-5.674;2024-03-08T11:13:34;99726.25;;;12.75;100.00
72438;BME280;60444;43.534;-5.674;2024-03-08T11:16:01;99716.25;;;12.52;100.00
72438;BME280;60444;43.534;-5.674;2024-03-08T11:18:32;99722.03;;;12.35;100.00
72438;BME280;60444;43.534;-5.674;2024-03-08T11:21:02;99734.16;;;12.18;100.00
72438;BME280;60444;43.534;-5.674;2024-03-08T11:23:32;99746.38;;;12.11;100.00
72438;BME280;60444;43.534;-5.674;2024-03-08T11:25:59;99759.75;;;12.02;100.00
72438;BME280;60444;43.534;-5.674;2024-03-08T11:28:25;99765.50;;;11.85;100.00
72438;BME280;60444;43.534;-5.674;2024-03-08T11:33:29;99768.94;;;11.62;100.00
72438;BME280;60444;43.534;-5.674;2024-03-08T11:36:21;99772.06;;;11.56;100.00
72438;BME280;60444;43.534;-5.674;2024-03-08T11:38:48;99758.50;;;11.43;100.00
72438;BME280;60444;43.534;-5.674;2024-03-08T11:41:16;99756.88;;;11.40;100.00
72438;BME280;60444;43.534;-5.674;2024-03-08T11:43:43;99765.53;;;11.33;100.00
72438;BME280;60444;43.534;-5.674;2024-03-08T11:46:13;99761.81;;;11.21;100.00
72438;BME280;60444;43.534;-5.674;2024-03-08T11:48:41;99768.28;;;11.06;100.00
72438;BME280;60444;43.534;-5.674;2024-03-08T11:51:13;99768.91;;;10.97;100.00
72438;BME280;60444;43.534;-5.674;2024-03-08T11:53:40;99784.28;;;10.97;100.00
72438;BME280;60444;43.534;-5.674;2024-03-08T11:56:12;99781.84;;;10.92;100.00
72438;BME280;60444;43.534;-5.674;2024-03-08T11:58:39;99798.09;;;10.92;100.00
72438;BME280;60444;43.534;-5.674;2024-03-08T12:01:09;99802.66;;;10.92;100.00
72438;BME280;60444;43.534;-5.674;2024-03-08T12:03:41;99793.22;;;10.85;100.00
72438;BME280;60444;43.534;-5.674;2024-03-08T12:06:11;99812.72;;;10.90;100.00
72438;BME280;60444;43.534;-5.674;2024-03-08T12:08:38;99798.41;;;10.88;100.00
72438;BME280;60444;43.534;-5.674;2024-03-08T12:11:04;99804.97;;;10.84;100.00
72438;BME280;60444;43.534;-5.674;2024-03-08T12:13:31;99817.06;;;10.78;100.00
72438;BME280;60444;43.534;-5.674;2024-03-08T12:15:58;99774.78;;;10.77;100.00
72438;BME280;60444;43.534;-5.674;2024-03-08T12:18:27;99799.91;;;10.79;100.00
72438;BME280;60444;43.534;-5.674;2024-03-08T12:21:09;99788.47;;;10.74;100.00
72438;BME280;60444;43.534;-5.674;2024-03-08T12:23:46;99766.41;;;10.68;100.00
72438;BME280;60444;43.534;-5.674;2024-03-08T12:26:18;99772.03;;;10.65;100.00
72438;BME280;60444;43.534;-5.674;2024-03-08T12:28:48;99766.50;;;10.66;100.00
72438;BME280;60444;43.534;-5.674;2024-03-08T12:31:17;99758.06;;;10.71;100.00
72438;BME280;60444;43.534;-5.674;2024-03-08T12:36:15;99744.56;;;10.71;100.00
72438;BME280;60444;43.534;-5.674;2024-03-08T12:38:44;99744.72;;;10.82;100.00
72438;BME280;60444;43.534;-5.674;2024-03-08T12:41:17;99722.13;;;10.83;100.00
72438;BME280;60444;43.534;-5.674;2024-03-08T12:43:44;99731.03;;;10.97;100.00
72438;BME280;60444;43.534;-5.674;2024-03-08T12:46:20;99716.78;;;11.08;100.00
72438;BME280;60444;43.534;-5.674;2024-03-08T12:48:46;99713.22;;;11.20;100.00